createdAt,value
2019-03-04T00:00:03.949Z,809.37
2019-03-04T00:00:08.314Z,809.37
2019-03-04T00:00:12.612Z,809.35
2019-03-04T00:00:16.804Z,809.37
2019-03-04T00:00:21.095Z,809.36
2019-03-04T00:00:25.385Z,809.33
2019-03-04T00:00:29.713Z,809.35
2019-03-04T00:00:34.014Z,809.33
2019-03-04T00:00:38.330Z,809.34
2019-03-04T00:00:42.643Z,809.34
2019-03-04T00:00:46.957Z,809.38
2019-03-04T00:00:51.254Z,809.36
2019-03-04T00:00:55.543Z,809.36
2019-03-04T00:00:59.842Z,809.36
2019-03-04T00:01:04.211Z,809.36
2019-03-04T00:01:08.510Z,809.32
2019-03-04T00:01:12.803Z,809.34
2019-03-04T00:01:17.102Z,809.32
2019-03-04T00:01:21.397Z,809.36
2019-03-04T00:01:25.687Z,809.36
2019-03-04T00:01:29.888Z,809.31
2019-03-04T00:01:34.255Z,809.38
2019-03-04T00:01:38.535Z,809.37
2019-03-04T00:01:42.830Z,809.34
2019-03-04T00:01:47.135Z,809.36
2019-03-04T00:01:51.333Z,809.33
2019-03-04T00:01:55.630Z,809.34
2019-03-04T00:01:59.928Z,809.37
2019-03-04T00:02:04.218Z,809.35
2019-03-04T00:02:08.513Z,809.32
2019-03-04T00:02:12.803Z,809.34
2019-03-04T00:02:17.099Z,809.3
2019-03-04T00:02:21.391Z,809.34
2019-03-04T00:02:25.692Z,809.36
2019-03-04T00:02:29.995Z,809.33
2019-03-04T00:02:34.292Z,809.38
2019-03-04T00:02:38.581Z,809.34
2019-03-04T00:02:42.892Z,809.33
2019-03-04T00:02:47.182Z,809.34
2019-03-04T00:02:51.375Z,809.32
2019-03-04T00:02:55.669Z,809.31
2019-03-04T00:02:59.868Z,809.32
2019-03-04T00:03:04.158Z,809.33
2019-03-04T00:03:08.450Z,809.31
2019-03-04T00:03:12.738Z,809.32
2019-03-04T00:03:17.035Z,809.36
2019-03-04T00:03:21.331Z,809.32
2019-03-04T00:03:25.633Z,809.33
2019-03-04T00:03:29.935Z,809.31
2019-03-04T00:03:34.227Z,809.32
2019-03-04T00:03:38.417Z,809.31
2019-03-04T00:03:42.732Z,809.33
2019-03-04T00:03:47.043Z,809.34
2019-03-04T00:03:51.344Z,809.3
2019-03-04T00:03:55.657Z,809.32
2019-03-04T00:03:59.765Z,809.32
2019-03-04T00:04:04.100Z,809.31
2019-03-04T00:04:08.114Z,809.3
2019-03-04T00:04:12.317Z,809.3
2019-03-04T00:04:16.623Z,809.29
2019-03-04T00:04:20.917Z,809.28
2019-03-04T00:04:25.217Z,809.33
2019-03-04T00:04:29.512Z,809.33
2019-03-04T00:04:33.799Z,809.28
2019-03-04T00:04:38.100Z,809.29
2019-03-04T00:04:42.393Z,809.26
2019-03-04T00:04:46.685Z,809.31
2019-03-04T00:04:50.982Z,809.29
2019-03-04T00:04:55.270Z,809.28
2019-03-04T00:04:59.567Z,809.28
2019-03-04T00:05:03.912Z,809.31
2019-03-04T00:05:08.213Z,809.27
2019-03-04T00:05:12.504Z,809.31
2019-03-04T00:05:16.695Z,809.3
2019-03-04T00:05:20.894Z,809.28
2019-03-04T00:05:25.185Z,809.32
2019-03-04T00:05:29.475Z,809.26
2019-03-04T00:05:33.761Z,809.32
2019-03-04T00:05:38.056Z,809.28
2019-03-04T00:05:42.246Z,809.28
2019-03-04T00:05:46.542Z,809.3
2019-03-04T00:05:50.852Z,809.29
2019-03-04T00:05:55.142Z,809.31
2019-03-04T00:05:59.338Z,809.3
2019-03-04T00:06:03.542Z,809.25
2019-03-04T00:06:07.846Z,809.28
2019-03-04T00:06:12.139Z,809.24
2019-03-04T00:06:16.347Z,809.26
2019-03-04T00:06:20.637Z,809.24
2019-03-04T00:06:24.935Z,809.22
2019-03-04T00:06:29.236Z,809.22
2019-03-04T00:06:33.529Z,809.26
2019-03-04T00:06:37.816Z,809.26
2019-03-04T00:06:42.015Z,809.23
2019-03-04T00:06:46.304Z,809.23
2019-03-04T00:06:50.595Z,809.24
2019-03-04T00:06:54.793Z,809.27
2019-03-04T00:06:59.090Z,809.23
2019-03-04T00:07:03.385Z,809.23
2019-03-04T00:07:07.690Z,809.23
2019-03-04T00:07:11.887Z,809.24
2019-03-04T00:07:16.077Z,809.25
2019-03-04T00:07:20.368Z,809.23
2019-03-04T00:07:24.669Z,809.15
2019-03-04T00:07:28.963Z,809.23
2019-03-04T00:07:33.063Z,809.16
2019-03-04T00:07:37.372Z,809.2
2019-03-04T00:07:41.726Z,809.24
2019-03-04T00:07:46.016Z,809.22
2019-03-04T00:07:50.308Z,809.21
2019-03-04T00:07:54.600Z,809.18
2019-03-04T00:07:58.824Z,809.21
2019-03-04T00:08:03.123Z,809.18
2019-03-04T00:08:07.430Z,809.14
2019-03-04T00:08:11.746Z,809.15
2019-03-04T00:08:16.057Z,809.23
2019-03-04T00:08:20.346Z,809.24
2019-03-04T00:08:24.647Z,809.21
2019-03-04T00:08:28.843Z,809.19
2019-03-04T00:08:35.179Z,809.21
2019-03-04T00:08:39.482Z,809.2
2019-03-04T00:08:43.811Z,809.2
2019-03-04T00:08:48.103Z,809.22
2019-03-04T00:08:52.390Z,809.18
2019-03-04T00:08:56.677Z,809.18
2019-03-04T00:09:01.004Z,809.18
2019-03-04T00:09:05.345Z,809.18
2019-03-04T00:09:09.636Z,809.2
2019-03-04T00:09:13.923Z,809.16
2019-03-04T00:09:18.220Z,809.17
2019-03-04T00:09:22.432Z,809.19
2019-03-04T00:09:26.739Z,809.13
2019-03-04T00:09:31.033Z,809.17
2019-03-04T00:09:35.326Z,809.17
2019-03-04T00:09:39.629Z,809.13
2019-03-04T00:09:43.935Z,809.19
2019-03-04T00:09:48.235Z,809.18
2019-03-04T00:09:52.443Z,809.19
2019-03-04T00:09:56.739Z,809.12
2019-03-04T00:10:01.092Z,809.16
2019-03-04T00:10:05.482Z,809.14
2019-03-04T00:10:09.771Z,809.14
2019-03-04T00:10:13.972Z,809.15
2019-03-04T00:10:18.271Z,809.15
2019-03-04T00:10:22.577Z,809.15
2019-03-04T00:10:26.794Z,809.14
2019-03-04T00:10:31.089Z,809.12
2019-03-04T00:10:35.394Z,809.12
2019-03-04T00:10:39.706Z,809.13
2019-03-04T00:10:43.896Z,809.1
2019-03-04T00:10:48.198Z,809.11
2019-03-04T00:10:52.396Z,809.14
2019-03-04T00:10:56.749Z,809.12
2019-03-04T00:11:01.052Z,809.13
2019-03-04T00:11:05.351Z,809.13
2019-03-04T00:11:09.647Z,809.13
2019-03-04T00:11:13.945Z,809.13
2019-03-04T00:11:18.244Z,809.12
2019-03-04T00:11:22.534Z,809.13
2019-03-04T00:11:26.838Z,809.12
2019-03-04T00:11:31.141Z,809.11
2019-03-04T00:11:35.439Z,809.13
2019-03-04T00:11:39.726Z,809.09
2019-03-04T00:11:43.924Z,809.13
2019-03-04T00:11:48.128Z,809.13
2019-03-04T00:11:52.419Z,809.1
2019-03-04T00:11:56.718Z,809.09
2019-03-04T00:12:01.008Z,809.09
2019-03-04T00:12:05.299Z,809.07
2019-03-04T00:12:09.622Z,809.08
2019-03-04T00:12:13.917Z,809.1
2019-03-04T00:12:18.204Z,809.1
2019-03-04T00:12:22.493Z,809.07
2019-03-04T00:12:26.692Z,809.07
2019-03-04T00:12:30.986Z,809.05
2019-03-04T00:12:35.181Z,808.97
2019-03-04T00:12:39.378Z,809.08
2019-03-04T00:12:43.670Z,809.03
2019-03-04T00:12:47.963Z,809.05
2019-03-04T00:12:52.324Z,809.04
2019-03-04T00:12:56.516Z,809.03
2019-03-04T00:13:00.707Z,809.05
2019-03-04T00:13:05.008Z,809.07
2019-03-04T00:13:09.296Z,809.05
2019-03-04T00:13:13.590Z,809.05
2019-03-04T00:13:17.892Z,809.05
2019-03-04T00:13:22.101Z,809.02
2019-03-04T00:13:26.395Z,809.05
2019-03-04T00:13:30.693Z,809.05
2019-03-04T00:13:34.997Z,809.05
2019-03-04T00:13:39.296Z,809.02
2019-03-04T00:13:43.489Z,809.02
2019-03-04T00:13:47.786Z,809
2019-03-04T00:13:52.086Z,809.03
2019-03-04T00:13:56.376Z,809.03
2019-03-04T00:14:00.668Z,809
2019-03-04T00:14:04.968Z,809.02
2019-03-04T00:14:09.266Z,809
2019-03-04T00:14:13.561Z,809.01
2019-03-04T00:14:17.885Z,809.01
2019-03-04T00:14:22.180Z,809.02
2019-03-04T00:14:26.474Z,809
2019-03-04T00:14:30.761Z,809.01
2019-03-04T00:14:35.053Z,809.01
2019-03-04T00:14:39.348Z,808.99
2019-03-04T00:14:43.687Z,809.01
2019-03-04T00:14:47.981Z,808.98
2019-03-04T00:14:52.176Z,808.93
2019-03-04T00:14:56.462Z,808.98
2019-03-04T00:15:00.759Z,808.99
2019-03-04T00:15:05.064Z,808.99
2019-03-04T00:15:09.354Z,808.98
2019-03-04T00:15:13.547Z,808.98
2019-03-04T00:15:17.873Z,809.01
2019-03-04T00:15:22.171Z,808.95
2019-03-04T00:15:26.460Z,808.98
2019-03-04T00:15:30.756Z,809
2019-03-04T00:15:35.055Z,809.01
2019-03-04T00:15:39.355Z,808.92
2019-03-04T00:15:43.567Z,808.96
2019-03-04T00:15:47.859Z,808.98
2019-03-04T00:15:52.164Z,808.97
2019-03-04T00:15:56.369Z,808.98
2019-03-04T00:16:00.662Z,808.94
2019-03-04T00:16:04.969Z,808.92
2019-03-04T00:16:09.263Z,808.99
2019-03-04T00:16:13.560Z,808.96
2019-03-04T00:16:17.852Z,808.94
2019-03-04T00:16:22.159Z,808.92
2019-03-04T00:16:26.449Z,808.96
2019-03-04T00:16:30.740Z,808.94
2019-03-04T00:16:35.050Z,808.94
2019-03-04T00:16:39.340Z,808.93
2019-03-04T00:16:43.637Z,808.92
2019-03-04T00:16:47.743Z,808.93
2019-03-04T00:16:51.955Z,808.91
2019-03-04T00:16:56.249Z,808.92
2019-03-04T00:17:00.541Z,808.91
2019-03-04T00:17:04.831Z,808.88
2019-03-04T00:17:09.121Z,808.91
2019-03-04T00:17:13.497Z,808.85
2019-03-04T00:17:17.786Z,808.85
2019-03-04T00:17:22.078Z,808.82
2019-03-04T00:17:26.387Z,808.89
2019-03-04T00:17:30.699Z,808.85
2019-03-04T00:17:35.003Z,808.85
2019-03-04T00:17:39.292Z,808.84
2019-03-04T00:17:43.481Z,808.88
2019-03-04T00:17:47.671Z,808.85
2019-03-04T00:17:51.962Z,808.78
2019-03-04T00:17:56.247Z,808.78
2019-03-04T00:18:00.442Z,808.82
2019-03-04T00:18:04.854Z,808.83
2019-03-04T00:18:09.147Z,808.84
2019-03-04T00:18:13.236Z,808.81
2019-03-04T00:18:17.430Z,808.8
2019-03-04T00:18:21.716Z,808.8
2019-03-04T00:18:25.932Z,808.8
2019-03-04T00:18:30.219Z,808.78
2019-03-04T00:18:34.510Z,808.76
2019-03-04T00:18:38.805Z,808.78
2019-03-04T00:18:43.097Z,808.78
2019-03-04T00:18:47.390Z,808.78
2019-03-04T00:18:51.691Z,808.79
2019-03-04T00:18:55.994Z,808.78
2019-03-04T00:19:00.182Z,808.76
2019-03-04T00:19:04.493Z,808.77
2019-03-04T00:19:08.689Z,808.75
2019-03-04T00:19:12.888Z,808.77
2019-03-04T00:19:17.179Z,808.75
2019-03-04T00:19:21.516Z,808.75
2019-03-04T00:19:25.806Z,808.76
2019-03-04T00:19:30.131Z,808.76
2019-03-04T00:19:34.429Z,808.74
2019-03-04T00:19:38.778Z,808.74
2019-03-04T00:19:43.076Z,808.75
2019-03-04T00:19:47.361Z,808.74
2019-03-04T00:19:51.649Z,808.77
2019-03-04T00:19:55.941Z,808.75
2019-03-04T00:20:00.395Z,808.75
2019-03-04T00:20:04.822Z,808.75
2019-03-04T00:20:09.110Z,808.71
2019-03-04T00:20:13.405Z,808.69
2019-03-04T00:20:17.694Z,808.72
2019-03-04T00:20:21.987Z,808.71
2019-03-04T00:20:26.275Z,808.69
2019-03-04T00:20:30.566Z,808.64
2019-03-04T00:20:34.867Z,808.64
2019-03-04T00:20:39.157Z,808.73
2019-03-04T00:20:43.495Z,808.68
2019-03-04T00:20:47.792Z,808.71
2019-03-04T00:20:52.098Z,808.7
2019-03-04T00:20:56.295Z,808.7
2019-03-04T00:21:00.584Z,808.7
2019-03-04T00:21:04.876Z,808.68
2019-03-04T00:21:09.172Z,808.6
2019-03-04T00:21:13.473Z,808.67
2019-03-04T00:21:17.762Z,808.67
2019-03-04T00:21:22.055Z,808.63
2019-03-04T00:21:26.362Z,808.66
2019-03-04T00:21:30.673Z,808.64
2019-03-04T00:21:34.871Z,808.62
2019-03-04T00:21:39.167Z,808.61
2019-03-04T00:21:43.468Z,808.62
2019-03-04T00:21:47.802Z,808.64
2019-03-04T00:21:52.090Z,808.63
2019-03-04T00:21:56.393Z,808.62
2019-03-04T00:22:00.695Z,808.63
2019-03-04T00:22:05.050Z,808.6
2019-03-04T00:22:09.242Z,808.62
2019-03-04T00:22:13.546Z,808.61
2019-03-04T00:22:17.841Z,808.59
2019-03-04T00:22:22.138Z,808.62
2019-03-04T00:22:26.437Z,808.62
2019-03-04T00:22:30.733Z,808.61
2019-03-04T00:22:34.941Z,808.6
2019-03-04T00:22:39.270Z,808.62
2019-03-04T00:22:43.464Z,808.64
2019-03-04T00:22:47.755Z,808.56
2019-03-04T00:22:52.046Z,808.57
2019-03-04T00:22:56.348Z,808.57
2019-03-04T00:23:00.543Z,808.58
2019-03-04T00:23:04.742Z,808.61
2019-03-04T00:23:09.035Z,808.65
2019-03-04T00:23:13.322Z,808.62
2019-03-04T00:23:17.613Z,808.59
2019-03-04T00:23:21.923Z,808.61
2019-03-04T00:23:26.260Z,808.62
2019-03-04T00:23:30.458Z,808.6
2019-03-04T00:23:34.745Z,808.56
2019-03-04T00:23:39.029Z,808.56
2019-03-04T00:23:43.332Z,808.58
2019-03-04T00:23:47.622Z,808.56
2019-03-04T00:23:51.822Z,808.57
2019-03-04T00:23:56.026Z,808.61
2019-03-04T00:24:00.323Z,808.6
2019-03-04T00:24:04.826Z,808.56
2019-03-04T00:24:09.116Z,808.54
2019-03-04T00:24:13.416Z,808.58
2019-03-04T00:24:17.705Z,808.58
2019-03-04T00:24:21.995Z,808.61
2019-03-04T00:24:26.195Z,808.57
2019-03-04T00:24:30.493Z,808.51
2019-03-04T00:24:34.696Z,808.59
2019-03-04T00:24:38.990Z,808.52
2019-03-04T00:24:43.282Z,808.58
2019-03-04T00:24:47.596Z,808.58
2019-03-04T00:24:51.887Z,808.58
2019-03-04T00:24:56.177Z,808.59
2019-03-04T00:25:00.467Z,808.57
2019-03-04T00:25:04.666Z,808.58
2019-03-04T00:25:08.974Z,808.58
2019-03-04T00:25:13.166Z,808.54
2019-03-04T00:25:17.494Z,808.53
2019-03-04T00:25:21.694Z,808.52
2019-03-04T00:25:26.038Z,808.49
2019-03-04T00:25:30.331Z,808.59
2019-03-04T00:25:34.626Z,808.57
2019-03-04T00:25:38.914Z,808.54
2019-03-04T00:25:43.214Z,808.53
2019-03-04T00:25:47.424Z,808.52
2019-03-04T00:25:53.983Z,808.53
2019-03-04T00:25:58.172Z,808.54
2019-03-04T00:26:02.460Z,808.57
2019-03-04T00:26:06.758Z,808.57
2019-03-04T00:26:11.057Z,808.52
2019-03-04T00:26:15.345Z,808.53
2019-03-04T00:26:19.653Z,808.54
2019-03-04T00:26:23.943Z,808.52
2019-03-04T00:26:28.133Z,808.52
2019-03-04T00:26:32.429Z,808.5
2019-03-04T00:26:36.736Z,808.5
2019-03-04T00:26:41.020Z,808.5
2019-03-04T00:26:45.329Z,808.49
2019-03-04T00:26:49.618Z,808.47
2019-03-04T00:26:53.723Z,808.51
2019-03-04T00:26:58.021Z,808.45
2019-03-04T00:27:02.326Z,808.48
2019-03-04T00:27:06.627Z,808.49
2019-03-04T00:27:10.917Z,808.47
2019-03-04T00:27:15.215Z,808.48
2019-03-04T00:27:19.507Z,808.45
2019-03-04T00:27:23.799Z,808.42
2019-03-04T00:27:28.093Z,808.45
2019-03-04T00:27:32.380Z,808.45
2019-03-04T00:27:36.672Z,808.45
2019-03-04T00:27:40.966Z,808.43
2019-03-04T00:27:45.262Z,808.42
2019-03-04T00:27:49.554Z,808.37
2019-03-04T00:27:53.876Z,808.4
2019-03-04T00:27:58.163Z,808.38
2019-03-04T00:28:02.455Z,808.4
2019-03-04T00:28:06.740Z,808.39
2019-03-04T00:28:10.935Z,808.41
2019-03-04T00:28:15.230Z,808.42
2019-03-04T00:28:19.514Z,808.39
2019-03-04T00:28:23.863Z,808.37
2019-03-04T00:28:28.059Z,808.38
2019-03-04T00:28:32.355Z,808.33
2019-03-04T00:28:36.647Z,808.34
2019-03-04T00:28:40.938Z,808.39
2019-03-04T00:28:45.130Z,808.35
2019-03-04T00:28:49.420Z,808.35
2019-03-04T00:28:53.708Z,808.33
2019-03-04T00:28:57.806Z,808.31
2019-03-04T00:29:02.253Z,808.32
2019-03-04T00:29:06.551Z,808.32
2019-03-04T00:29:10.850Z,808.3
2019-03-04T00:29:15.140Z,808.28
2019-03-04T00:29:19.435Z,808.29
2019-03-04T00:29:23.730Z,808.3
2019-03-04T00:29:28.023Z,808.29
2019-03-04T00:29:32.319Z,808.25
2019-03-04T00:29:36.617Z,808.3
2019-03-04T00:29:40.916Z,808.28
2019-03-04T00:29:45.250Z,808.3
2019-03-04T00:29:49.543Z,808.31
2019-03-04T00:29:53.837Z,808.31
2019-03-04T00:29:58.129Z,808.28
2019-03-04T00:30:02.454Z,808.29
2019-03-04T00:30:06.754Z,808.3
2019-03-04T00:30:10.956Z,808.33
2019-03-04T00:30:15.245Z,808.25
2019-03-04T00:30:19.536Z,808.28
2019-03-04T00:30:23.846Z,808.28
2019-03-04T00:30:28.140Z,808.26
2019-03-04T00:30:32.428Z,808.27
2019-03-04T00:30:36.717Z,808.28
2019-03-04T00:30:41.019Z,808.27
2019-03-04T00:30:45.309Z,808.26
2019-03-04T00:30:49.614Z,808.26
2019-03-04T00:30:53.925Z,808.27
2019-03-04T00:30:58.222Z,808.26
2019-03-04T00:31:02.519Z,808.24
2019-03-04T00:31:06.815Z,808.24
2019-03-04T00:31:11.110Z,808.2
2019-03-04T00:31:15.395Z,808.28
2019-03-04T00:31:19.695Z,808.27
2019-03-04T00:31:23.993Z,808.25
2019-03-04T00:31:28.297Z,808.27
2019-03-04T00:31:32.616Z,808.23
2019-03-04T00:31:36.904Z,808.26
2019-03-04T00:31:41.199Z,808.27
2019-03-04T00:31:45.394Z,808.25
2019-03-04T00:31:49.683Z,808.22
2019-03-04T00:31:53.974Z,808.24
2019-03-04T00:31:58.269Z,808.23
2019-03-04T00:32:02.570Z,808.23
2019-03-04T00:32:06.874Z,808.23
2019-03-04T00:32:11.170Z,808.22
2019-03-04T00:32:15.368Z,808.19
2019-03-04T00:32:19.653Z,808.21
2019-03-04T00:32:23.958Z,808.15
2019-03-04T00:32:28.241Z,808.14
2019-03-04T00:32:32.533Z,808.19
2019-03-04T00:32:36.866Z,808.17
2019-03-04T00:32:41.154Z,808.16
2019-03-04T00:32:47.388Z,808.11
2019-03-04T00:32:51.683Z,808.16
2019-03-04T00:32:55.983Z,808.17
2019-03-04T00:33:00.276Z,808.18
2019-03-04T00:33:04.511Z,808.18
2019-03-04T00:33:08.889Z,808.15
2019-03-04T00:33:13.177Z,808.17
2019-03-04T00:33:17.463Z,808.18
2019-03-04T00:33:21.824Z,808.16
2019-03-04T00:33:25.941Z,808.16
2019-03-04T00:33:30.244Z,808.16
2019-03-04T00:33:34.535Z,808.17
2019-03-04T00:33:38.835Z,808.11
2019-03-04T00:33:43.124Z,808.16
2019-03-04T00:33:47.414Z,808.14
2019-03-04T00:33:51.755Z,808.17
2019-03-04T00:33:56.050Z,808.15
2019-03-04T00:34:00.251Z,808.15
2019-03-04T00:34:04.700Z,808.14
2019-03-04T00:34:09.049Z,808.12
2019-03-04T00:34:13.364Z,808.12
2019-03-04T00:34:17.658Z,808.13
2019-03-04T00:34:21.954Z,808.16
2019-03-04T00:34:26.159Z,808.16
2019-03-04T00:34:30.453Z,808.17
2019-03-04T00:34:34.762Z,808.15
2019-03-04T00:34:39.108Z,808.16
2019-03-04T00:34:43.406Z,808.17
2019-03-04T00:34:47.702Z,808.17
2019-03-04T00:34:52.007Z,808.18
2019-03-04T00:34:56.296Z,808.17
2019-03-04T00:35:00.590Z,808.15
2019-03-04T00:35:04.805Z,808.18
2019-03-04T00:35:09.010Z,808.16
2019-03-04T00:35:13.208Z,808.15
2019-03-04T00:35:17.438Z,808.12
2019-03-04T00:35:21.733Z,808.12
2019-03-04T00:35:25.990Z,808.16
2019-03-04T00:35:30.230Z,808.15
2019-03-04T00:35:34.526Z,808.16
2019-03-04T00:35:38.821Z,808.14
2019-03-04T00:35:43.116Z,808.15
2019-03-04T00:35:47.408Z,808.17
2019-03-04T00:35:51.599Z,808.14
2019-03-04T00:35:55.895Z,808.16
2019-03-04T00:36:00.091Z,808.16
2019-03-04T00:36:04.537Z,808.14
2019-03-04T00:36:08.827Z,808.14
2019-03-04T00:36:13.027Z,808.09
2019-03-04T00:36:17.221Z,808.13
2019-03-04T00:36:21.522Z,808.12
2019-03-04T00:36:25.725Z,808.12
2019-03-04T00:36:30.017Z,808.09
2019-03-04T00:36:34.246Z,808.13
2019-03-04T00:36:38.533Z,808.11
2019-03-04T00:36:42.846Z,808.09
2019-03-04T00:36:47.143Z,808.1
2019-03-04T00:36:51.437Z,808.11
2019-03-04T00:36:55.737Z,808.08
2019-03-04T00:37:00.031Z,808.07
2019-03-04T00:37:04.323Z,808.08
2019-03-04T00:37:08.638Z,808.12
2019-03-04T00:37:12.929Z,808.11
2019-03-04T00:37:17.216Z,808.1
2019-03-04T00:37:21.541Z,808.1
2019-03-04T00:37:25.748Z,808.08
2019-03-04T00:37:29.945Z,808.09
2019-03-04T00:37:34.150Z,808.08
2019-03-04T00:37:38.346Z,808.06
2019-03-04T00:37:42.538Z,808.1
2019-03-04T00:37:46.832Z,808.05
2019-03-04T00:37:51.145Z,808.1
2019-03-04T00:37:55.448Z,808.09
2019-03-04T00:37:59.734Z,808.04
2019-03-04T00:38:03.925Z,808.07
2019-03-04T00:38:08.229Z,808.07
2019-03-04T00:38:12.523Z,808.06
2019-03-04T00:38:16.833Z,808.05
2019-03-04T00:38:21.124Z,808.04
2019-03-04T00:38:25.419Z,808.06
2019-03-04T00:38:29.751Z,808.06
2019-03-04T00:38:34.037Z,808.02
2019-03-04T00:38:38.334Z,808
2019-03-04T00:38:42.529Z,808.05
2019-03-04T00:38:46.818Z,808.04
2019-03-04T00:38:51.169Z,808.05
2019-03-04T00:38:55.465Z,808.07
2019-03-04T00:38:59.751Z,808.07
2019-03-04T00:39:04.044Z,808.05
2019-03-04T00:39:08.344Z,808.05
2019-03-04T00:39:12.647Z,808.04
2019-03-04T00:39:16.988Z,807.99
2019-03-04T00:39:21.298Z,808.07
2019-03-04T00:39:25.591Z,808.07
2019-03-04T00:39:29.896Z,808.03
2019-03-04T00:39:34.197Z,808.07
2019-03-04T00:39:38.394Z,808.06
2019-03-04T00:39:42.682Z,808.07
2019-03-04T00:39:46.969Z,808.05
2019-03-04T00:39:51.256Z,808.05
2019-03-04T00:39:55.550Z,808.07
2019-03-04T00:39:59.892Z,808.06
2019-03-04T00:40:04.183Z,808.07
2019-03-04T00:40:08.473Z,808.08
2019-03-04T00:40:12.771Z,808.08
2019-03-04T00:40:17.058Z,808.08
2019-03-04T00:40:21.352Z,808.09
2019-03-04T00:40:25.645Z,808.08
2019-03-04T00:40:29.965Z,808.1
2019-03-04T00:40:34.281Z,808.07
2019-03-04T00:40:38.622Z,808.1
2019-03-04T00:40:42.911Z,808.08
2019-03-04T00:40:47.205Z,808.08
2019-03-04T00:40:51.503Z,808.07
2019-03-04T00:40:55.795Z,808.08
2019-03-04T00:41:00.093Z,808.1
2019-03-04T00:41:04.395Z,808.04
2019-03-04T00:41:08.713Z,808.05
2019-03-04T00:41:13.006Z,808.06
2019-03-04T00:41:17.209Z,808.11
2019-03-04T00:41:21.552Z,808.1
2019-03-04T00:41:25.839Z,808.11
2019-03-04T00:41:30.143Z,808.14
2019-03-04T00:41:34.478Z,808.13
2019-03-04T00:41:38.764Z,808.15
2019-03-04T00:41:43.055Z,808.15
2019-03-04T00:41:47.340Z,808.16
2019-03-04T00:41:51.629Z,808.13
2019-03-04T00:41:55.924Z,808.11
2019-03-04T00:42:00.141Z,808.17
2019-03-04T00:42:04.488Z,808.11
2019-03-04T00:42:08.786Z,808.13
2019-03-04T00:42:13.080Z,808.18
2019-03-04T00:42:17.284Z,808.17
2019-03-04T00:42:21.475Z,808.16
2019-03-04T00:42:25.766Z,808.16
2019-03-04T00:42:30.072Z,808.16
2019-03-04T00:42:34.372Z,808.17
2019-03-04T00:42:38.701Z,808.19
2019-03-04T00:42:42.987Z,808.15
2019-03-04T00:42:47.289Z,808.17
2019-03-04T00:42:51.576Z,808.16
2019-03-04T00:42:55.871Z,808.19
2019-03-04T00:42:59.971Z,808.21
2019-03-04T00:43:04.261Z,808.1
2019-03-04T00:43:08.555Z,808.21
2019-03-04T00:43:12.845Z,808.16
2019-03-04T00:43:17.134Z,808.16
2019-03-04T00:43:21.424Z,808.11
2019-03-04T00:43:25.628Z,808.18
2019-03-04T00:43:29.831Z,808.17
2019-03-04T00:43:34.130Z,808.17
2019-03-04T00:43:38.426Z,808.17
2019-03-04T00:43:42.718Z,808.18
2019-03-04T00:43:47.014Z,808.18
2019-03-04T00:43:51.303Z,808.16
2019-03-04T00:43:55.595Z,808.19
2019-03-04T00:43:59.883Z,808.19
2019-03-04T00:44:04.177Z,808.21
2019-03-04T00:44:08.475Z,808.19
2019-03-04T00:44:12.767Z,808.17
2019-03-04T00:44:16.967Z,808.2
2019-03-04T00:44:21.256Z,808.17
2019-03-04T00:44:25.562Z,808.16
2019-03-04T00:44:29.878Z,808.17
2019-03-04T00:44:34.167Z,808.12
2019-03-04T00:44:38.464Z,808.14
2019-03-04T00:44:42.784Z,808.09
2019-03-04T00:44:46.979Z,808.13
2019-03-04T00:44:51.272Z,808.1
2019-03-04T00:44:55.560Z,808.05
2019-03-04T00:44:59.854Z,808.08
2019-03-04T00:45:04.161Z,808.11
2019-03-04T00:45:08.353Z,808.08
2019-03-04T00:45:12.548Z,808.06
2019-03-04T00:45:16.843Z,808.09
2019-03-04T00:45:21.131Z,808.1
2019-03-04T00:45:25.419Z,808.09
2019-03-04T00:45:29.717Z,808.11
2019-03-04T00:45:34.009Z,808.1
2019-03-04T00:45:38.299Z,808.09
2019-03-04T00:45:42.593Z,808.08
2019-03-04T00:45:46.911Z,808.07
2019-03-04T00:45:51.200Z,808.07
2019-03-04T00:45:55.543Z,808.04
2019-03-04T00:45:59.839Z,808.06
2019-03-04T00:46:04.282Z,808.07
2019-03-04T00:46:08.572Z,808.05
2019-03-04T00:46:12.857Z,808.03
2019-03-04T00:46:17.150Z,808.05
2019-03-04T00:46:21.445Z,808.03
2019-03-04T00:46:25.731Z,808.02
2019-03-04T00:46:30.029Z,808.05
2019-03-04T00:46:34.324Z,808.05
2019-03-04T00:46:38.617Z,808.01
2019-03-04T00:46:42.903Z,808.05
2019-03-04T00:46:47.200Z,808.02
2019-03-04T00:46:51.518Z,808.01
2019-03-04T00:46:55.649Z,808.03
2019-03-04T00:46:59.948Z,808.02
2019-03-04T00:47:04.142Z,808.01
2019-03-04T00:47:08.347Z,807.99
2019-03-04T00:47:12.441Z,808
2019-03-04T00:47:16.740Z,808.03
2019-03-04T00:47:21.032Z,808.01
2019-03-04T00:47:25.332Z,808.01
2019-03-04T00:47:29.525Z,808
2019-03-04T00:47:33.717Z,807.97
2019-03-04T00:47:38.011Z,807.98
2019-03-04T00:47:42.296Z,808
2019-03-04T00:47:46.598Z,808.03
2019-03-04T00:47:50.902Z,808.01
2019-03-04T00:47:55.190Z,808.01
2019-03-04T00:47:59.480Z,807.98
2019-03-04T00:48:03.776Z,808
2019-03-04T00:48:08.067Z,807.99
2019-03-04T00:48:12.357Z,807.98
2019-03-04T00:48:16.673Z,808.01
2019-03-04T00:48:20.961Z,808
2019-03-04T00:48:25.269Z,807.98
2019-03-04T00:48:29.560Z,808.02
2019-03-04T00:48:33.854Z,807.99
2019-03-04T00:48:38.139Z,807.97
2019-03-04T00:48:42.332Z,807.96
2019-03-04T00:48:46.640Z,807.98
2019-03-04T00:48:50.933Z,807.97
2019-03-04T00:48:55.240Z,807.96
2019-03-04T00:48:59.533Z,807.95
2019-03-04T00:49:03.825Z,807.95
2019-03-04T00:49:08.124Z,807.97
2019-03-04T00:49:12.414Z,807.96
2019-03-04T00:49:16.617Z,807.95
2019-03-04T00:49:20.909Z,807.95
2019-03-04T00:49:25.201Z,807.97
2019-03-04T00:49:29.497Z,807.97
2019-03-04T00:49:33.786Z,807.95
2019-03-04T00:49:37.978Z,807.92
2019-03-04T00:49:42.274Z,807.96
2019-03-04T00:49:46.560Z,807.99
2019-03-04T00:49:50.853Z,807.96
2019-03-04T00:49:56.968Z,807.95
2019-03-04T00:50:01.360Z,807.96
2019-03-04T00:50:05.662Z,807.96
2019-03-04T00:50:09.970Z,807.95
2019-03-04T00:50:14.261Z,807.95
2019-03-04T00:50:18.561Z,807.95
2019-03-04T00:50:22.858Z,807.95
2019-03-04T00:50:27.149Z,807.95
2019-03-04T00:50:31.445Z,807.94
2019-03-04T00:50:35.738Z,807.97
2019-03-04T00:50:40.037Z,807.95
2019-03-04T00:50:44.333Z,807.96
2019-03-04T00:50:48.636Z,807.92
2019-03-04T00:50:52.940Z,807.96
2019-03-04T00:50:57.150Z,807.93
2019-03-04T00:51:01.474Z,807.92
2019-03-04T00:51:05.772Z,807.92
2019-03-04T00:51:10.079Z,807.95
2019-03-04T00:51:14.388Z,807.95
2019-03-04T00:51:18.687Z,807.9
2019-03-04T00:51:22.980Z,807.93
2019-03-04T00:51:27.282Z,807.95
2019-03-04T00:51:31.579Z,807.93
2019-03-04T00:51:35.887Z,807.94
2019-03-04T00:51:40.237Z,807.96
2019-03-04T00:51:44.539Z,807.94
2019-03-04T00:51:48.834Z,807.93
2019-03-04T00:51:53.129Z,807.89
2019-03-04T00:51:57.488Z,807.97
2019-03-04T00:52:01.778Z,807.92
2019-03-04T00:52:06.086Z,807.94
2019-03-04T00:52:10.385Z,807.91
2019-03-04T00:52:14.703Z,807.95
2019-03-04T00:52:19.012Z,807.9
2019-03-04T00:52:23.310Z,807.95
2019-03-04T00:52:27.603Z,807.92
2019-03-04T00:52:31.909Z,807.96
2019-03-04T00:52:36.202Z,807.95
2019-03-04T00:52:40.489Z,807.95
2019-03-04T00:52:44.796Z,807.94
2019-03-04T00:52:49.086Z,807.94
2019-03-04T00:52:53.383Z,807.93
2019-03-04T00:52:57.677Z,807.93
2019-03-04T00:53:01.876Z,807.96
2019-03-04T00:53:06.276Z,808
2019-03-04T00:53:10.567Z,807.94
2019-03-04T00:53:14.828Z,807.95
2019-03-04T00:53:19.128Z,807.93
2019-03-04T00:53:23.425Z,807.95
2019-03-04T00:53:27.620Z,807.93
2019-03-04T00:53:31.909Z,807.96
2019-03-04T00:53:36.220Z,807.98
2019-03-04T00:53:40.562Z,807.95
2019-03-04T00:53:44.862Z,807.98
2019-03-04T00:53:49.072Z,807.98